KTVC/TVC METAR and TAF weather

Enter ICAO airport designator
Station Type Date Time Source
KTVC METAR 2020/11/27 02:53 UTC NOAA

KTVC 270253Z AUTO 24004KT 10SM OVC022 06/02 A2996 RMK AO2 SLP151 T00610022 51011


Station Type Date Time Source
KTVC Decoded METAR 2020/11/27 02:53 UTC NOAA

CHERRY CAPITAL AIRPORT, MI, United States (KTVC) 44-44N 085-34W 190M
Nov 26, 2020 - 09:53 PM EST / 2020.11.27 0253 UTC
Wind: from the WSW (240 degrees) at 5 MPH (4 KT):0
Visibility: 10 mile(s):0
Sky conditions: overcast
Temperature: 43.0 F (6.1 C)
Dew Point: 36.0 F (2.2 C)
Relative Humidity: 76%
Pressure (altimeter): 29.96 in. Hg (1014 hPa)
Pressure tendency: 0.03 inches (1.1 hPa) higher than three hours ago
ob: KTVC 270253Z AUTO 24004KT 10SM OVC022 06/02 A2996 RMK AO2 SLP151 T00610022 51011
cycle: 3

Station Type Date Time Source
KTVC TAF 2020/11/26 18:48 UTC NOAA

TAF KTVC 261746Z 2618/2718 21006KT P6SM OVC010
FM262100 24011G19KT P6SM OVC014
FM270300 VRB03KT P6SM OVC014
FM271500 25004KT P6SM OVC015

Example: see airport list